sensor_id;sensor_type;location;lat;lon;timestamp;pressure;altitude;pressure_sealevel;temperature
29701;BMP280;57917;51.380;-0.176;2024-01-30T00:02:05;101796.13;;;12.53
29701;BMP280;57917;51.380;-0.176;2024-01-30T00:07:52;101786.56;;;12.52
29701;BMP280;57917;51.380;-0.176;2024-01-30T00:13:49;101791.88;;;12.52
29701;BMP280;57917;51.380;-0.176;2024-01-30T00:19:36;101778.31;;;12.54
29701;BMP280;57917;51.380;-0.176;2024-01-30T00:25:23;101792.97;;;12.66
29701;BMP280;57917;51.380;-0.176;2024-01-30T00:31:10;101764.25;;;12.58
29701;BMP280;57917;51.380;-0.176;2024-01-30T00:44:18;101757.09;;;12.59
29701;BMP280;57917;51.380;-0.176;2024-01-30T00:50:13;101756.28;;;12.58
29701;BMP280;57917;51.380;-0.176;2024-01-30T00:56:04;101753.38;;;12.55
29701;BMP280;57917;51.380;-0.176;2024-01-30T01:01:52;101746.72;;;12.52
29701;BMP280;57917;51.380;-0.176;2024-01-30T01:07:43;101737.06;;;12.31
29701;BMP280;57917;51.380;-0.176;2024-01-30T01:13:36;101726.47;;;12.36
29701;BMP280;57917;51.380;-0.176;2024-01-30T01:19:23;101726.19;;;12.28
29701;BMP280;57917;51.380;-0.176;2024-01-30T01:25:10;101712.38;;;12.31
29701;BMP280;57917;51.380;-0.176;2024-01-30T01:30:57;101708.09;;;12.25
29701;BMP280;57917;51.380;-0.176;2024-01-30T01:36:52;101734.38;;;12.21
29701;BMP280;57917;51.380;-0.176;2024-01-30T01:42:41;101730.63;;;12.07
29701;BMP280;57917;51.380;-0.176;2024-01-30T01:48:28;101721.53;;;11.98
29701;BMP280;57917;51.380;-0.176;2024-01-30T01:54:16;101721.28;;;11.58
29701;BMP280;57917;51.380;-0.176;2024-01-30T02:00:04;101735.06;;;11.55
29701;BMP280;57917;51.380;-0.176;2024-01-30T02:05:55;101749.72;;;11.31
29701;BMP280;57917;51.380;-0.176;2024-01-30T02:11:42;101749.94;;;11.29
29701;BMP280;57917;51.380;-0.176;2024-01-30T02:17:31;101765.63;;;11.31
29701;BMP280;57917;51.380;-0.176;2024-01-30T02:23:19;101758.97;;;11.60
29701;BMP280;57917;51.380;-0.176;2024-01-30T02:29:17;101750.50;;;11.63
29701;BMP280;57917;51.380;-0.176;2024-01-30T02:35:06;101766.81;;;11.50
29701;BMP280;57917;51.380;-0.176;2024-01-30T02:40:56;101766.63;;;11.25
29701;BMP280;57917;51.380;-0.176;2024-01-30T02:46:48;101774.91;;;11.33
29701;BMP280;57917;51.380;-0.176;2024-01-30T02:52:35;101771.59;;;11.16
29701;BMP280;57917;51.380;-0.176;2024-01-30T02:58:22;101775.19;;;11.32
29701;BMP280;57917;51.380;-0.176;2024-01-30T03:04:11;101791.34;;;11.30
29701;BMP280;57917;51.380;-0.176;2024-01-30T03:10:01;101794.66;;;11.21
29701;BMP280;57917;51.380;-0.176;2024-01-30T03:15:57;101780.97;;;11.02
29701;BMP280;57917;51.380;-0.176;2024-01-30T03:21:47;101799.38;;;11.14
29701;BMP280;57917;51.380;-0.176;2024-01-30T03:27:34;101775.09;;;10.95
29701;BMP280;57917;51.380;-0.176;2024-01-30T03:33:21;101814.41;;;11.03
29701;BMP280;57917;51.380;-0.176;2024-01-30T03:39:08;101803.25;;;11.06
29701;BMP280;57917;51.380;-0.176;2024-01-30T03:44:56;101818.28;;;10.96
29701;BMP280;57917;51.380;-0.176;2024-01-30T03:50:43;101813.41;;;10.88
29701;BMP280;57917;51.380;-0.176;2024-01-30T03:56:30;101832.13;;;10.60
29701;BMP280;57917;51.380;-0.176;2024-01-30T04:02:19;101827.44;;;10.67
29701;BMP280;57917;51.380;-0.176;2024-01-30T04:08:06;101827.88;;;10.59
29701;BMP280;57917;51.380;-0.176;2024-01-30T04:13:53;101822.19;;;10.50
29701;BMP280;57917;51.380;-0.176;2024-01-30T04:19:41;101824.31;;;10.70
29701;BMP280;57917;51.380;-0.176;2024-01-30T04:25:28;101822.56;;;10.59
29701;BMP280;57917;51.380;-0.176;2024-01-30T04:31:15;101809.84;;;10.56
29701;BMP280;57917;51.380;-0.176;2024-01-30T04:37:02;101800.78;;;10.52
29701;BMP280;57917;51.380;-0.176;2024-01-30T04:42:49;101809.75;;;10.51
29701;BMP280;57917;51.380;-0.176;2024-01-30T04:48:36;101814.59;;;10.54
29701;BMP280;57917;51.380;-0.176;2024-01-30T04:54:24;101822.34;;;10.60
29701;BMP280;57917;51.380;-0.176;2024-01-30T05:00:11;101824.31;;;10.70
29701;BMP280;57917;51.380;-0.176;2024-01-30T05:05:59;101841.06;;;10.75
29701;BMP280;57917;51.380;-0.176;2024-01-30T05:11:46;101852.56;;;10.81
29701;BMP280;57917;51.380;-0.176;2024-01-30T05:17:33;101874.34;;;10.88
29701;BMP280;57917;51.380;-0.176;2024-01-30T05:23:20;101882.13;;;10.94
29701;BMP280;57917;51.380;-0.176;2024-01-30T05:29:07;101885.56;;;10.95
29701;BMP280;57917;51.380;-0.176;2024-01-30T05:34:54;101868.78;;;10.68
29701;BMP280;57917;51.380;-0.176;2024-01-30T05:40:41;101880.22;;;10.52
29701;BMP280;57917;51.380;-0.176;2024-01-30T05:46:30;101914.72;;;10.57
29701;BMP280;57917;51.380;-0.176;2024-01-30T05:52:17;101892.38;;;10.31
29701;BMP280;57917;51.380;-0.176;2024-01-30T05:58:05;101908.63;;;10.23
29701;BMP280;57917;51.380;-0.176;2024-01-30T06:03:53;101927.25;;;10.45
29701;BMP280;57917;51.380;-0.176;2024-01-30T06:09:40;101927.88;;;10.35
29701;BMP280;57917;51.380;-0.176;2024-01-30T06:15:27;101946.88;;;9.99
29701;BMP280;57917;51.380;-0.176;2024-01-30T06:21:16;101937.53;;;9.80
29701;BMP280;57917;51.380;-0.176;2024-01-30T06:27:03;101952.09;;;9.66
29701;BMP280;57917;51.380;-0.176;2024-01-30T06:32:50;101975.94;;;9.82
29701;BMP280;57917;51.380;-0.176;2024-01-30T06:38:37;101977.88;;;9.87
29701;BMP280;57917;51.380;-0.176;2024-01-30T06:44:24;101993.88;;;9.80
29701;BMP280;57917;51.380;-0.176;2024-01-30T06:50:12;101988.09;;;9.83
29701;BMP280;57917;51.380;-0.176;2024-01-30T06:55:59;102015.47;;;9.77
29701;BMP280;57917;51.380;-0.176;2024-01-30T07:01:46;102012.34;;;9.52
29701;BMP280;57917;51.380;-0.176;2024-01-30T07:07:33;102026.44;;;9.81
29701;BMP280;57917;51.380;-0.176;2024-01-30T07:13:21;102042.94;;;9.88
29701;BMP280;57917;51.380;-0.176;2024-01-30T07:19:15;102043.91;;;9.82
29701;BMP280;57917;51.380;-0.176;2024-01-30T07:25:03;102070.59;;;9.80
29701;BMP280;57917;51.380;-0.176;2024-01-30T07:30:53;102094.75;;;10.00
29701;BMP280;57917;51.380;-0.176;2024-01-30T07:36:40;102094.47;;;9.97
29701;BMP280;57917;51.380;-0.176;2024-01-30T07:42:31;102100.00;;;10.24
29701;BMP280;57917;51.380;-0.176;2024-01-30T07:48:24;102117.97;;;10.22
29701;BMP280;57917;51.380;-0.176;2024-01-30T07:54:26;102116.50;;;10.02
29701;BMP280;57917;51.380;-0.176;2024-01-30T08:00:17;102123.19;;;10.05
29701;BMP280;57917;51.380;-0.176;2024-01-30T08:06:12;102145.22;;;9.82
29701;BMP280;57917;51.380;-0.176;2024-01-30T08:12:02;102159.91;;;10.02
29701;BMP280;57917;51.380;-0.176;2024-01-30T08:17:50;102159.56;;;9.86
29701;BMP280;57917;51.380;-0.176;2024-01-30T08:23:46;102176.84;;;9.89
29701;BMP280;57917;51.380;-0.176;2024-01-30T08:29:34;102185.69;;;9.71
29701;BMP280;57917;51.380;-0.176;2024-01-30T08:35:22;102189.81;;;9.90
29701;BMP280;57917;51.380;-0.176;2024-01-30T08:41:11;102204.75;;;9.96
29701;BMP280;57917;51.380;-0.176;2024-01-30T08:46:58;102205.34;;;9.98
29701;BMP280;57917;51.380;-0.176;2024-01-30T08:52:46;102220.06;;;9.71
29701;BMP280;57917;51.380;-0.176;2024-01-30T08:58:35;102227.34;;;9.64
29701;BMP280;57917;51.380;-0.176;2024-01-30T09:04:25;102252.56;;;9.49
29701;BMP280;57917;51.380;-0.176;2024-01-30T09:10:20;102250.78;;;9.72
29701;BMP280;57917;51.380;-0.176;2024-01-30T09:16:38;102248.47;;;9.76
29701;BMP280;57917;51.380;-0.176;2024-01-30T09:22:25;102265.81;;;9.60
29701;BMP280;57917;51.380;-0.176;2024-01-30T09:28:14;102281.72;;;9.72
29701;BMP280;57917;51.380;-0.176;2024-01-30T09:34:02;102281.41;;;9.91
29701;BMP280;57917;51.380;-0.176;2024-01-30T09:39:50;102290.69;;;10.29
29701;BMP280;57917;51.380;-0.176;2024-01-30T09:45:37;102302.31;;;10.05
29701;BMP280;57917;51.380;-0.176;2024-01-30T09:51:25;102323.59;;;10.10
29701;BMP280;57917;51.380;-0.176;2024-01-30T09:57:15;102323.03;;;10.08
29701;BMP280;57917;51.380;-0.176;2024-01-30T10:03:03;102324.06;;;10.18
29701;BMP280;57917;51.380;-0.176;2024-01-30T10:08:50;102341.09;;;10.45
29701;BMP280;57917;51.380;-0.176;2024-01-30T10:14:39;102347.53;;;10.49
29701;BMP280;57917;51.380;-0.176;2024-01-30T10:20:26;102358.00;;;10.44
29701;BMP280;57917;51.380;-0.176;2024-01-30T10:26:16;102355.22;;;10.51
29701;BMP280;57917;51.380;-0.176;2024-01-30T10:32:08;102369.63;;;10.55
29701;BMP280;57917;51.380;-0.176;2024-01-30T10:37:57;102372.06;;;10.45
29701;BMP280;57917;51.380;-0.176;2024-01-30T10:43:51;102393.34;;;10.50
29701;BMP280;57917;51.380;-0.176;2024-01-30T10:49:41;102414.78;;;10.48
29701;BMP280;57917;51.380;-0.176;2024-01-30T10:55:34;102422.94;;;10.70
29701;BMP280;57917;51.380;-0.176;2024-01-30T11:01:25;102417.19;;;10.50
29701;BMP280;57917;51.380;-0.176;2024-01-30T11:07:16;102426.91;;;10.03
29701;BMP280;57917;51.380;-0.176;2024-01-30T11:13:10;102434.50;;;10.00
29701;BMP280;57917;51.380;-0.176;2024-01-30T11:19:00;102437.72;;;10.02
29701;BMP280;57917;51.380;-0.176;2024-01-30T11:24:47;102435.44;;;10.05
29701;BMP280;57917;51.380;-0.176;2024-01-30T11:30:34;102446.66;;;10.00
29701;BMP280;57917;51.380;-0.176;2024-01-30T11:36:25;102450.81;;;9.96
29701;BMP280;57917;51.380;-0.176;2024-01-30T11:42:14;102448.88;;;10.04
29701;BMP280;57917;51.380;-0.176;2024-01-30T11:48:05;102467.50;;;9.97
29701;BMP280;57917;51.380;-0.176;2024-01-30T11:53:57;102479.22;;;9.89
29701;BMP280;57917;51.380;-0.176;2024-01-30T11:59:44;102493.09;;;9.85
29701;BMP280;57917;51.380;-0.176;2024-01-30T12:05:31;102490.88;;;10.00
29701;BMP280;57917;51.380;-0.176;2024-01-30T12:11:18;102491.66;;;10.00
29701;BMP280;57917;51.380;-0.176;2024-01-30T12:17:08;102481.06;;;9.89
29701;BMP280;57917;51.380;-0.176;2024-01-30T12:22:56;102489.41;;;9.86
29701;BMP280;57917;51.380;-0.176;2024-01-30T12:28:49;102497.16;;;9.87
29701;BMP280;57917;51.380;-0.176;2024-01-30T12:34:42;102508.16;;;9.73
29701;BMP280;57917;51.380;-0.176;2024-01-30T12:40:45;102523.94;;;9.61
29701;BMP280;57917;51.380;-0.176;2024-01-30T12:46:36;102528.25;;;9.74
29701;BMP280;57917;51.380;-0.176;2024-01-30T12:52:24;102519.97;;;10.00
29701;BMP280;57917;51.380;-0.176;2024-01-30T12:58:14;102539.38;;;9.94
29701;BMP280;57917;51.380;-0.176;2024-01-30T13:04:01;102546.81;;;9.85
29701;BMP280;57917;51.380;-0.176;2024-01-30T13:09:49;102538.75;;;9.80
29701;BMP280;57917;51.380;-0.176;2024-01-30T13:15:36;102544.16;;;10.04
29701;BMP280;57917;51.380;-0.176;2024-01-30T13:21:25;102554.38;;;10.00
29701;BMP280;57917;51.380;-0.176;2024-01-30T13:27:12;102577.22;;;9.94
29701;BMP280;57917;51.380;-0.176;2024-01-30T13:32:58;102555.44;;;9.81
29701;BMP280;57917;51.380;-0.176;2024-01-30T13:38:46;102556.75;;;10.20
29701;BMP280;57917;51.380;-0.176;2024-01-30T13:44:35;102569.81;;;10.03
29701;BMP280;57917;51.380;-0.176;2024-01-30T13:50:23;102563.94;;;10.31
29701;BMP280;57917;51.380;-0.176;2024-01-30T13:56:10;102579.25;;;10.11
29701;BMP280;57917;51.380;-0.176;2024-01-30T14:01:57;102576.00;;;10.27
29701;BMP280;57917;51.380;-0.176;2024-01-30T14:07:44;102583.28;;;10.31
29701;BMP280;57917;51.380;-0.176;2024-01-30T14:13:33;102586.13;;;10.30
29701;BMP280;57917;51.380;-0.176;2024-01-30T14:19:21;102592.22;;;10.19
29701;BMP280;57917;51.380;-0.176;2024-01-30T14:25:11;102606.41;;;10.24
29701;BMP280;57917;51.380;-0.176;2024-01-30T14:31:00;102630.28;;;10.18
29701;BMP280;57917;51.380;-0.176;2024-01-30T14:36:47;102620.59;;;10.12
29701;BMP280;57917;51.380;-0.176;2024-01-30T14:42:34;102613.22;;;10.32
29701;BMP280;57917;51.380;-0.176;2024-01-30T14:48:22;102635.75;;;10.23
29701;BMP280;57917;51.380;-0.176;2024-01-30T14:54:13;102617.63;;;10.20
29701;BMP280;57917;51.380;-0.176;2024-01-30T15:00:05;102623.84;;;10.43
29701;BMP280;57917;51.380;-0.176;2024-01-30T15:05:55;102621.78;;;10.45
29701;BMP280;57917;51.380;-0.176;2024-01-30T15:11:44;102633.38;;;10.33
29701;BMP280;57917;51.380;-0.176;2024-01-30T15:17:44;102673.50;;;10.48
29701;BMP280;57917;51.380;-0.176;2024-01-30T15:23:31;102655.97;;;10.47
29701;BMP280;57917;51.380;-0.176;2024-01-30T15:29:20;102656.22;;;10.45
29701;BMP280;57917;51.380;-0.176;2024-01-30T15:35:13;102676.34;;;10.46
29701;BMP280;57917;51.380;-0.176;2024-01-30T15:41:06;102688.03;;;10.57
29701;BMP280;57917;51.380;-0.176;2024-01-30T15:46:56;102699.00;;;10.60
29701;BMP280;57917;51.380;-0.176;2024-01-30T15:52:44;102706.75;;;10.26
29701;BMP280;57917;51.380;-0.176;2024-01-30T15:58:33;102695.06;;;9.97
29701;BMP280;57917;51.380;-0.176;2024-01-30T16:04:21;102711.88;;;10.02
29701;BMP280;57917;51.380;-0.176;2024-01-30T16:10:11;102713.00;;;9.95
29701;BMP280;57917;51.380;-0.176;2024-01-30T16:16:06;102717.19;;;9.60
29701;BMP280;57917;51.380;-0.176;2024-01-30T16:21:53;102740.94;;;9.66
29701;BMP280;57917;51.380;-0.176;2024-01-30T16:28:09;102749.50;;;9.86
29701;BMP280;57917;51.380;-0.176;2024-01-30T16:34:01;102766.16;;;10.12
29701;BMP280;57917;51.380;-0.176;2024-01-30T16:39:49;102764.41;;;10.06
29701;BMP280;57917;51.380;-0.176;2024-01-30T16:45:36;102757.19;;;10.13
29701;BMP280;57917;51.380;-0.176;2024-01-30T16:51:25;102766.75;;;10.14
29701;BMP280;57917;51.380;-0.176;2024-01-30T16:57:17;102765.06;;;10.19
29701;BMP280;57917;51.380;-0.176;2024-01-30T17:03:05;102763.06;;;10.15
29701;BMP280;57917;51.380;-0.176;2024-01-30T17:08:52;102773.41;;;10.23
29701;BMP280;57917;51.380;-0.176;2024-01-30T17:14:39;102778.94;;;10.15
29701;BMP280;57917;51.380;-0.176;2024-01-30T17:20:28;102782.50;;;10.09
29701;BMP280;57917;51.380;-0.176;2024-01-30T17:26:15;102802.63;;;10.10
29701;BMP280;57917;51.380;-0.176;2024-01-30T17:32:02;102797.72;;;9.88
29701;BMP280;57917;51.380;-0.176;2024-01-30T17:37:51;102801.75;;;9.73
29701;BMP280;57917;51.380;-0.176;2024-01-30T17:43:39;102819.72;;;9.64
29701;BMP280;57917;51.380;-0.176;2024-01-30T17:49:26;102820.91;;;9.68
29701;BMP280;57917;51.380;-0.176;2024-01-30T17:55:16;102827.72;;;9.82
29701;BMP280;57917;51.380;-0.176;2024-01-30T18:01:03;102849.22;;;9.86
29701;BMP280;57917;51.380;-0.176;2024-01-30T18:06:51;102856.22;;;10.05
29701;BMP280;57917;51.380;-0.176;2024-01-30T18:12:40;102862.28;;;10.12
29701;BMP280;57917;51.380;-0.176;2024-01-30T18:18:31;102857.09;;;10.17
29701;BMP280;57917;51.380;-0.176;2024-01-30T18:24:18;102867.34;;;10.14
29701;BMP280;57917;51.380;-0.176;2024-01-30T18:30:32;102879.63;;;10.08
29701;BMP280;57917;51.380;-0.176;2024-01-30T18:36:24;102885.94;;;10.07
29701;BMP280;57917;51.380;-0.176;2024-01-30T18:42:15;102898.00;;;10.21
29701;BMP280;57917;51.380;-0.176;2024-01-30T18:48:04;102897.63;;;10.18
29701;BMP280;57917;51.380;-0.176;2024-01-30T18:53:51;102906.19;;;10.20
29701;BMP280;57917;51.380;-0.176;2024-01-30T18:59:43;102924.38;;;10.10
29701;BMP280;57917;51.380;-0.176;2024-01-30T19:05:34;102928.22;;;10.14
29701;BMP280;57917;51.380;-0.176;2024-01-30T19:11:21;102917.91;;;10.06
29701;BMP280;57917;51.380;-0.176;2024-01-30T19:17:11;102928.25;;;9.82
29701;BMP280;57917;51.380;-0.176;2024-01-30T19:23:00;102945.06;;;9.50
29701;BMP280;57917;51.380;-0.176;2024-01-30T19:28:47;102954.03;;;9.49
29701;BMP280;57917;51.380;-0.176;2024-01-30T19:34:36;102968.50;;;9.47
29701;BMP280;57917;51.380;-0.176;2024-01-30T19:40:23;102978.69;;;9.43
29701;BMP280;57917;51.380;-0.176;2024-01-30T19:46:16;102984.53;;;9.58
29701;BMP280;57917;51.380;-0.176;2024-01-30T19:52:07;102988.94;;;9.71
29701;BMP280;57917;51.380;-0.176;2024-01-30T19:58:10;102993.44;;;9.70
29701;BMP280;57917;51.380;-0.176;2024-01-30T20:04:00;102997.94;;;9.57
29701;BMP280;57917;51.380;-0.176;2024-01-30T20:09:49;103013.84;;;9.50
29701;BMP280;57917;51.380;-0.176;2024-01-30T20:15:36;103039.91;;;9.40
29701;BMP280;57917;51.380;-0.176;2024-01-30T20:21:23;103043.75;;;9.44
29701;BMP280;57917;51.380;-0.176;2024-01-30T20:27:12;103052.88;;;9.61
29701;BMP280;57917;51.380;-0.176;2024-01-30T20:33:05;103042.53;;;9.40
29701;BMP280;57917;51.380;-0.176;2024-01-30T20:38:55;103042.91;;;9.57
29701;BMP280;57917;51.380;-0.176;2024-01-30T20:44:44;103045.41;;;9.45
29701;BMP280;57917;51.380;-0.176;2024-01-30T20:50:31;103051.97;;;8.84
29701;BMP280;57917;51.380;-0.176;2024-01-30T20:56:19;103068.03;;;8.83
29701;BMP280;57917;51.380;-0.176;2024-01-30T21:02:09;103063.53;;;8.96
29701;BMP280;57917;51.380;-0.176;2024-01-30T21:07:58;103078.13;;;9.44
29701;BMP280;57917;51.380;-0.176;2024-01-30T21:13:45;103079.56;;;9.53
29701;BMP280;57917;51.380;-0.176;2024-01-30T21:19:32;103081.56;;;9.58
29701;BMP280;57917;51.380;-0.176;2024-01-30T21:25:21;103080.41;;;9.47
29701;BMP280;57917;51.380;-0.176;2024-01-30T21:31:08;103077.31;;;9.50
29701;BMP280;57917;51.380;-0.176;2024-01-30T21:36:55;103075.69;;;9.49
29701;BMP280;57917;51.380;-0.176;2024-01-30T21:42:42;103088.28;;;9.60
29701;BMP280;57917;51.380;-0.176;2024-01-30T21:48:32;103072.38;;;9.73
29701;BMP280;57917;51.380;-0.176;2024-01-30T22:01:37;103051.69;;;9.51
29701;BMP280;57917;51.380;-0.176;2024-01-30T22:07:28;103046.41;;;9.44
29701;BMP280;57917;51.380;-0.176;2024-01-30T22:13:16;103054.09;;;9.59
29701;BMP280;57917;51.380;-0.176;2024-01-30T22:19:57;103057.34;;;9.61
29701;BMP280;57917;51.380;-0.176;2024-01-30T22:26:03;103061.28;;;9.45
29701;BMP280;57917;51.380;-0.176;2024-01-30T22:32:17;103050.94;;;9.37
29701;BMP280;57917;51.380;-0.176;2024-01-30T22:38:07;103037.25;;;9.40
29701;BMP280;57917;51.380;-0.176;2024-01-30T22:43:55;103039.53;;;9.30
29701;BMP280;57917;51.380;-0.176;2024-01-30T22:49:42;103041.31;;;9.49
29701;BMP280;57917;51.380;-0.176;2024-01-30T22:55:29;103033.78;;;9.46
29701;BMP280;57917;51.380;-0.176;2024-01-30T23:01:16;103039.97;;;9.14
29701;BMP280;57917;51.380;-0.176;2024-01-30T23:07:28;103056.97;;;9.44
29701;BMP280;57917;51.380;-0.176;2024-01-30T23:13:52;103055.31;;;9.63
29701;BMP280;57917;51.380;-0.176;2024-01-30T23:19:42;103074.06;;;9.55
29701;BMP280;57917;51.380;-0.176;2024-01-30T23:25:53;103080.16;;;9.42
29701;BMP280;57917;51.380;-0.176;2024-01-30T23:31:48;103081.00;;;9.36
29701;BMP280;57917;51.380;-0.176;2024-01-30T23:37:36;103080.16;;;9.49
29701;BMP280;57917;51.380;-0.176;2024-01-30T23:43:26;103086.53;;;9.28
29701;BMP280;57917;51.380;-0.176;2024-01-30T23:49:16;103085.88;;;9.39
29701;BMP280;57917;51.380;-0.176;2024-01-30T23:55:07;103092.78;;;9.47
